createdAt,value
2018-11-22T00:03:01.461Z,34.43
2018-11-22T00:05:41.914Z,32.10
2018-11-22T00:08:21.550Z,33.47
2018-11-22T00:13:46.827Z,32.30
2018-11-22T00:16:26.271Z,34.97
2018-11-22T00:19:05.973Z,33.77
2018-11-22T00:21:45.948Z,34.27
2018-11-22T00:24:26.623Z,33.93
2018-11-22T00:27:06.159Z,34.17
2018-11-22T00:29:47.409Z,33.13
2018-11-22T00:32:27.793Z,32.27
2018-11-22T00:35:09.267Z,33.17
2018-11-22T00:40:37.934Z,34.60
2018-11-22T00:46:01.711Z,36.93
2018-11-22T00:51:53.673Z,36.33
2018-11-22T00:54:33.412Z,32.23
2018-11-22T00:57:12.893Z,33.67
2018-11-22T00:59:52.635Z,34.47
2018-11-22T01:02:33.623Z,37.40
2018-11-22T01:05:14.809Z,37.83
2018-11-22T01:07:54.665Z,36.67
2018-11-22T01:10:34.420Z,36.67
2018-11-22T01:13:14.159Z,34.67
2018-11-22T01:15:54.627Z,38.90
2018-11-22T01:18:34.493Z,35.43
2018-11-22T01:23:57.760Z,36.20
2018-11-22T01:26:37.383Z,38.07
2018-11-22T01:29:16.889Z,42.23
2018-11-22T01:31:57.026Z,38.40
2018-11-22T01:34:37.455Z,33.93
2018-11-22T01:40:03.671Z,35.70
2018-11-22T01:42:44.167Z,37.83
2018-11-22T01:45:25.034Z,35.93
2018-11-22T01:48:05.653Z,37.30
2018-11-22T01:50:45.349Z,35.97
2018-11-22T01:53:25.029Z,37.40
2018-11-22T01:56:06.581Z,37.43
2018-11-22T02:01:32.551Z,36.40
2018-11-22T02:04:12.383Z,35.40
2018-11-22T02:06:53.472Z,37.97
2018-11-22T02:09:33.771Z,37.00
2018-11-22T02:12:13.371Z,33.73
2018-11-22T02:14:59.659Z,35.07
2018-11-22T02:17:39.165Z,39.97
2018-11-22T02:23:04.635Z,36.73
2018-11-22T02:25:44.175Z,35.90
2018-11-22T02:28:23.787Z,35.73
2018-11-22T02:31:03.447Z,36.30
2018-11-22T02:33:43.132Z,35.57
2018-11-22T02:36:22.588Z,37.83
2018-11-22T02:39:02.521Z,38.17
2018-11-22T02:41:42.761Z,37.53
2018-11-22T02:44:23.854Z,36.60
2018-11-22T02:47:04.029Z,36.60
2018-11-22T02:49:43.880Z,35.77
2018-11-22T02:52:23.424Z,35.23
2018-11-22T02:55:03.896Z,37.00
2018-11-22T03:00:28.019Z,37.03
2018-11-22T03:03:08.495Z,37.67
2018-11-22T03:08:34.286Z,36.27
2018-11-22T03:11:14.100Z,35.40
2018-11-22T03:13:53.635Z,37.73
2018-11-22T03:16:34.515Z,38.90
2018-11-22T03:19:15.899Z,37.23
2018-11-22T03:28:07.488Z,36.50
2018-11-22T03:30:47.403Z,33.90
2018-11-22T03:33:28.247Z,35.73
2018-11-22T03:38:57.828Z,35.17
2018-11-22T03:41:39.093Z,36.27
2018-11-22T03:44:18.983Z,40.40
2018-11-22T03:49:42.637Z,39.50
2018-11-22T03:52:22.901Z,34.43
2018-11-22T03:55:02.843Z,38.27
2018-11-22T03:57:43.041Z,37.17
2018-11-22T04:00:24.556Z,35.97
2018-11-22T04:03:05.412Z,36.90
2018-11-22T04:05:46.270Z,39.87
2018-11-22T04:08:27.739Z,36.83
2018-11-22T04:14:02.988Z,39.93
2018-11-22T04:16:42.573Z,36.03
2018-11-22T04:19:22.229Z,35.07
2018-11-22T04:22:01.975Z,37.20
2018-11-22T04:24:41.867Z,39.67
2018-11-22T04:33:36.539Z,37.17
2018-11-22T04:36:16.137Z,37.57
2018-11-22T04:45:02.723Z,39.63
2018-11-22T04:50:14.425Z,38.33
2018-11-22T04:53:01.262Z,40.03
2018-11-22T04:55:41.027Z,40.67
2018-11-22T04:58:20.463Z,40.63
2018-11-22T05:00:59.989Z,37.50
2018-11-22T05:06:25.689Z,40.03
2018-11-22T05:09:05.525Z,39.03
2018-11-22T05:11:46.929Z,36.07
2018-11-22T05:14:26.595Z,37.47
2018-11-22T05:17:07.020Z,36.73
2018-11-22T05:22:32.328Z,38.83
2018-11-22T05:25:12.516Z,34.27
2018-11-22T05:27:52.731Z,37.27
2018-11-22T05:30:32.681Z,33.43
2018-11-22T05:35:58.875Z,36.53
2018-11-22T05:41:27.422Z,34.93
2018-11-22T05:46:52.824Z,33.80
2018-11-22T05:49:33.042Z,33.83
2018-11-22T05:52:13.422Z,34.77
2018-11-22T05:54:53.632Z,38.27
2018-11-22T05:57:34.946Z,35.20
2018-11-22T06:00:02.284Z,34.97
2018-11-22T06:02:49.370Z,35.57
2018-11-22T06:05:36.486Z,39.13
2018-11-22T06:08:17.327Z,34.60
2018-11-22T06:10:56.842Z,34.87
2018-11-22T06:13:36.340Z,34.47
2018-11-22T06:16:17.390Z,34.67
2018-11-22T06:18:58.899Z,38.93
2018-11-22T06:24:24.570Z,35.97
2018-11-22T06:27:06.964Z,36.10
2018-11-22T06:29:46.566Z,41.10
2018-11-22T06:32:27.796Z,37.90
2018-11-22T06:35:07.990Z,46.33
2018-11-22T06:40:31.050Z,40.43
2018-11-22T06:43:10.671Z,37.73
2018-11-22T06:45:50.223Z,39.13
2018-11-22T06:48:29.822Z,35.23
2018-11-22T06:51:09.578Z,37.17
2018-11-22T06:56:34.996Z,39.00
2018-11-22T06:59:15.036Z,34.97
2018-11-22T07:01:54.655Z,37.10
2018-11-22T07:04:34.906Z,32.53
2018-11-22T07:07:14.917Z,34.83
2018-11-22T07:09:57.578Z,35.50
2018-11-22T07:12:39.811Z,35.50
2018-11-22T07:15:20.473Z,36.13
2018-11-22T07:18:00.772Z,35.93
2018-11-22T07:20:40.300Z,34.93
2018-11-22T07:23:20.697Z,33.23
2018-11-22T07:26:00.354Z,36.63
2018-11-22T07:28:40.149Z,35.00
2018-11-22T07:31:19.830Z,36.77
2018-11-22T07:36:45.054Z,37.00
2018-11-22T07:44:55.151Z,33.83
2018-11-22T07:47:35.468Z,37.00
2018-11-22T07:50:16.459Z,36.30
2018-11-22T07:52:57.946Z,38.17
2018-11-22T07:55:38.374Z,39.67
2018-11-22T07:58:18.867Z,35.37
2018-11-22T08:03:44.186Z,39.93
2018-11-22T08:09:17.449Z,39.33
2018-11-22T08:11:58.724Z,35.20
2018-11-22T08:14:39.122Z,36.13
2018-11-22T08:17:19.168Z,38.47
2018-11-22T08:19:59.284Z,37.80
2018-11-22T08:28:13.871Z,37.03
2018-11-22T08:30:53.894Z,38.67
2018-11-22T08:33:35.392Z,39.77
2018-11-22T08:38:58.834Z,35.20
2018-11-22T08:44:20.428Z,36.63
2018-11-22T08:47:00.200Z,40.17
2018-11-22T08:49:40.680Z,42.07
2018-11-22T08:52:20.421Z,37.27
2018-11-22T08:55:00.067Z,38.60
2018-11-22T09:00:29.850Z,39.13
2018-11-22T09:03:09.680Z,39.47
2018-11-22T09:05:49.203Z,36.27
2018-11-22T09:11:19.891Z,38.03
2018-11-22T12:17:46.995Z,36.53
2018-11-22T12:20:15.679Z,34.03
2018-11-22T12:22:44.723Z,33.20
2018-11-22T12:25:13.962Z,35.00
2018-11-22T12:27:42.804Z,34.70
2018-11-22T12:30:14.179Z,38.00
2018-11-22T12:32:51.591Z,35.47
2018-11-22T12:35:25.717Z,35.97
2018-11-22T12:37:59.127Z,33.40
2018-11-22T12:40:26.972Z,36.13
2018-11-22T12:42:54.971Z,34.83
2018-11-22T12:45:22.991Z,32.93
2018-11-22T12:47:51.173Z,35.63
2018-11-22T12:50:18.977Z,35.23
2018-11-22T12:52:46.857Z,33.83
2018-11-22T12:55:14.793Z,34.50
2018-11-22T12:57:43.104Z,37.83
2018-11-22T13:00:13.283Z,34.53
2018-11-22T13:02:42.402Z,33.40
2018-11-22T13:05:11.440Z,33.00
2018-11-22T13:07:39.511Z,33.77
2018-11-22T13:10:10.685Z,34.13
2018-11-22T13:12:38.979Z,37.47
2018-11-22T13:15:12.697Z,34.37
2018-11-22T13:17:40.572Z,35.37
2018-11-22T13:20:10.590Z,35.43
2018-11-22T13:22:38.577Z,33.87
2018-11-22T13:25:09.833Z,33.87
2018-11-22T13:27:37.707Z,36.93
2018-11-22T13:30:16.286Z,35.97
2018-11-22T13:32:45.006Z,33.17
2018-11-22T13:35:13.719Z,36.20
2018-11-22T13:37:42.807Z,33.33
2018-11-22T13:40:11.513Z,36.73
2018-11-22T13:42:40.305Z,35.67
2018-11-22T13:45:10.627Z,34.27
2018-11-22T13:47:40.715Z,34.80
2018-11-22T13:50:12.233Z,36.50
2018-11-22T13:52:40.105Z,34.63
2018-11-22T13:55:07.991Z,36.13
2018-11-22T13:57:37.437Z,36.90
2018-11-22T14:00:09.713Z,35.23
2018-11-22T14:02:37.621Z,36.00
2018-11-22T14:05:11.544Z,37.47
2018-11-22T14:07:35.014Z,32.43
2018-11-22T14:10:04.577Z,35.73
2018-11-22T14:12:32.536Z,34.30
2018-11-22T14:15:00.357Z,34.20
2018-11-22T14:17:28.225Z,37.90
2018-11-22T14:19:56.279Z,33.50
2018-11-22T14:22:24.323Z,33.67
2018-11-22T14:24:53.021Z,33.30
2018-11-22T14:27:21.125Z,35.30
2018-11-22T14:29:49.748Z,35.13
2018-11-22T14:32:17.603Z,34.53
2018-11-22T14:34:45.507Z,35.83
2018-11-22T14:37:13.449Z,36.17
2018-11-22T14:39:41.287Z,33.77
2018-11-22T14:42:09.143Z,37.70
2018-11-22T14:44:37.692Z,35.03
2018-11-22T14:47:05.565Z,35.60
2018-11-22T14:49:33.508Z,34.53
2018-11-22T14:52:01.385Z,36.80
2018-11-22T14:54:29.461Z,38.50
2018-11-22T14:56:57.385Z,37.10
2018-11-22T14:59:25.254Z,38.40
2018-11-22T15:01:53.179Z,37.10
2018-11-22T15:04:24.711Z,39.20
2018-11-22T15:06:52.723Z,39.03
2018-11-22T15:09:20.613Z,38.07
2018-11-22T15:11:49.273Z,38.97
2018-11-22T15:14:17.161Z,39.80
2018-11-22T15:16:45.030Z,35.87
2018-11-22T15:19:12.870Z,38.93
2018-11-22T15:21:40.704Z,36.63
2018-11-22T15:24:08.645Z,38.83
2018-11-22T15:26:36.621Z,40.90
2018-11-22T15:29:05.345Z,39.27
2018-11-22T15:31:34.224Z,38.13
2018-11-22T15:34:03.163Z,37.60
2018-11-22T15:36:31.903Z,37.70
2018-11-22T15:38:59.833Z,37.33
2018-11-22T15:41:27.645Z,37.73
2018-11-22T15:43:55.973Z,38.47
2018-11-22T15:46:23.903Z,37.10
2018-11-22T15:48:51.828Z,38.33
2018-11-22T15:51:19.876Z,39.87
2018-11-22T15:53:47.809Z,38.67
2018-11-22T15:56:15.721Z,37.93
2018-11-22T15:58:43.664Z,39.20
2018-11-22T16:01:11.584Z,41.17
2018-11-22T16:03:39.612Z,48.63
2018-11-22T16:06:21.364Z,60.00
2018-11-22T16:08:54.521Z,48.17
2018-11-22T16:11:27.590Z,43.40
2018-11-22T16:13:55.525Z,47.17
2018-11-22T16:16:23.437Z,42.10
2018-11-22T16:18:51.711Z,41.57
2018-11-22T16:21:20.541Z,40.60
2018-11-22T16:23:48.454Z,43.20
2018-11-22T16:26:16.362Z,43.17
2018-11-22T16:28:44.980Z,40.43
2018-11-22T16:31:14.073Z,42.67
2018-11-22T16:33:42.550Z,42.03
2018-11-22T16:36:10.435Z,42.13
2018-11-22T16:38:38.464Z,43.10
2018-11-22T16:41:07.195Z,41.23
2018-11-22T16:43:35.166Z,42.10
2018-11-22T16:46:04.156Z,46.07
2018-11-22T16:48:32.073Z,41.80
2018-11-22T16:50:59.996Z,43.60
2018-11-22T16:53:27.967Z,45.43
2018-11-22T16:55:56.619Z,43.87
2018-11-22T16:58:24.532Z,45.63
2018-11-22T17:00:53.776Z,42.37
2018-11-22T17:03:21.987Z,47.20
2018-11-22T17:05:49.864Z,44.63
2018-11-22T17:08:17.746Z,43.87
2018-11-22T17:10:45.641Z,43.70
2018-11-22T17:13:13.591Z,44.30
2018-11-22T17:15:42.240Z,44.70
2018-11-22T17:18:10.822Z,46.17
2018-11-22T17:20:38.779Z,43.13
2018-11-22T17:23:07.213Z,44.37
2018-11-22T17:25:35.720Z,42.13
2018-11-22T17:28:05.383Z,45.20
2018-11-22T17:30:41.705Z,43.33
2018-11-22T17:33:12.478Z,41.60
2018-11-22T17:35:41.365Z,42.10
2018-11-22T17:38:13.089Z,41.93
2018-11-22T17:40:42.821Z,43.00
2018-11-22T17:43:10.781Z,49.43
2018-11-22T17:45:40.853Z,48.27
2018-11-22T17:48:08.955Z,45.47
2018-11-22T17:50:38.585Z,45.17
2018-11-22T17:53:07.395Z,47.47
2018-11-22T17:55:35.468Z,46.37
2018-11-22T17:58:03.503Z,46.93
2018-11-22T18:00:47.685Z,53.47
2018-11-22T18:03:15.582Z,48.60
2018-11-22T18:05:43.486Z,48.87
2018-11-22T18:08:11.500Z,42.03
2018-11-22T18:10:40.772Z,42.50
2018-11-22T18:13:08.680Z,42.50
2018-11-22T18:16:09.469Z,43.63
2018-11-22T18:18:37.750Z,43.83
2018-11-22T18:21:06.367Z,44.23
2018-11-22T18:23:35.270Z,47.83
2018-11-22T18:26:04.169Z,49.40
2018-11-22T18:28:32.514Z,46.37
2018-11-22T18:31:00.779Z,48.23
2018-11-22T18:33:28.702Z,49.20
2018-11-22T18:35:57.699Z,49.37
2018-11-22T18:38:26.254Z,45.37
2018-11-22T18:40:54.795Z,45.70
2018-11-22T18:43:25.004Z,48.00
2018-11-22T18:45:54.105Z,46.73
2018-11-22T18:48:22.262Z,46.53
2018-11-22T18:50:50.142Z,44.10
2018-11-22T18:53:18.263Z,46.07
2018-11-22T18:55:54.036Z,46.87
2018-11-22T18:58:22.085Z,46.53
2018-11-22T19:00:50.090Z,44.03
2018-11-22T19:03:19.052Z,44.73
2018-11-22T19:05:46.972Z,46.80
2018-11-22T19:08:14.915Z,48.47
2018-11-22T19:10:43.574Z,45.97
2018-11-22T19:13:13.069Z,47.10
2018-11-22T19:15:42.489Z,46.70
2018-11-22T19:18:11.025Z,47.67
2018-11-22T19:20:41.997Z,42.23
2018-11-22T19:23:10.506Z,48.80
2018-11-22T19:25:39.402Z,49.67
2018-11-22T19:28:07.908Z,45.80
2018-11-22T19:30:37.699Z,48.43
2018-11-22T19:33:07.224Z,48.80
2018-11-22T19:35:37.111Z,50.90
2018-11-22T19:38:05.457Z,55.23
2018-11-22T19:40:34.672Z,57.73
2018-11-22T19:43:03.859Z,54.20
2018-11-22T19:45:33.345Z,53.93
2018-11-22T19:48:01.315Z,51.57
2018-11-22T19:50:29.794Z,55.67
2018-11-22T19:52:58.707Z,51.13
2018-11-22T19:55:27.840Z,48.83
2018-11-22T19:57:57.176Z,51.57
2018-11-22T20:00:25.779Z,51.83
2018-11-22T20:02:54.601Z,52.07
2018-11-22T20:05:23.676Z,52.40
2018-11-22T20:07:53.260Z,51.57
2018-11-22T20:10:23.474Z,47.97
2018-11-22T20:12:51.458Z,47.13
2018-11-22T20:15:19.373Z,46.73
2018-11-22T20:17:48.140Z,46.87
2018-11-22T20:20:18.057Z,47.53
2018-11-22T20:22:45.018Z,50.07
2018-11-22T20:25:12.985Z,49.07
2018-11-22T20:27:41.244Z,46.60
2018-11-22T20:30:13.721Z,49.67
2018-11-22T20:32:41.818Z,51.47
2018-11-22T20:35:11.910Z,56.33
2018-11-22T20:37:39.953Z,55.63
2018-11-22T20:40:09.291Z,52.07
2018-11-22T20:42:37.823Z,54.13
2018-11-22T20:45:07.816Z,48.77
2018-11-22T20:47:35.862Z,51.20
2018-11-22T20:50:04.717Z,56.30
2018-11-22T20:52:32.667Z,54.60
2018-11-22T20:55:00.625Z,52.20
2018-11-22T20:57:28.589Z,50.17
2018-11-22T20:59:56.552Z,50.20
2018-11-22T21:02:24.513Z,52.17
2018-11-22T21:04:52.458Z,53.33
2018-11-22T21:07:20.430Z,50.03
2018-11-22T21:09:48.314Z,57.10
2018-11-22T21:12:16.188Z,55.43
2018-11-22T21:14:44.145Z,57.77
2018-11-22T21:17:12.046Z,52.53
2018-11-22T21:19:39.936Z,50.00
2018-11-22T21:22:08.066Z,55.37
2018-11-22T21:24:36.994Z,51.27
2018-11-22T21:27:05.147Z,46.77
2018-11-22T21:29:33.024Z,54.60
2018-11-22T21:32:01.061Z,48.60
2018-11-22T21:34:29.679Z,55.73
2018-11-22T21:36:57.748Z,52.13
2018-11-22T21:39:25.713Z,54.47
2018-11-22T21:41:53.683Z,51.50
2018-11-22T21:44:21.579Z,52.73
2018-11-22T21:46:49.478Z,53.77
2018-11-22T21:49:17.378Z,56.67
2018-11-22T21:51:45.276Z,51.00
2018-11-22T21:54:13.202Z,51.73
2018-11-22T21:56:41.039Z,55.30
2018-11-22T21:59:08.944Z,49.70
2018-11-22T22:01:36.911Z,53.13
2018-11-22T22:04:05.119Z,53.47
2018-11-22T22:06:33.020Z,53.00
2018-11-22T22:09:00.924Z,52.77
2018-11-22T22:11:28.805Z,60.23
2018-11-22T22:13:56.701Z,58.83
2018-11-22T22:16:24.700Z,60.63
2018-11-22T22:18:52.724Z,59.43
2018-11-22T22:21:20.596Z,55.73
2018-11-22T22:23:48.494Z,54.37
2018-11-22T22:26:16.376Z,60.20
2018-11-22T22:28:44.256Z,55.97
2018-11-22T22:31:12.195Z,60.50
2018-11-22T22:33:40.082Z,57.97
2018-11-22T22:36:07.984Z,58.67
2018-11-22T22:38:35.826Z,54.33
2018-11-22T22:41:04.458Z,55.90
2018-11-22T22:43:32.410Z,54.60
2018-11-22T22:46:00.276Z,56.37
2018-11-22T22:48:28.182Z,55.53
2018-11-22T22:50:56.044Z,53.73
2018-11-22T22:53:23.916Z,58.27
2018-11-22T22:55:51.892Z,51.60
2018-11-22T22:58:19.733Z,56.33
2018-11-22T23:00:48.648Z,61.77
2018-11-22T23:03:16.724Z,58.07
2018-11-22T23:05:44.704Z,53.07
2018-11-22T23:08:12.635Z,56.03
2018-11-22T23:10:40.533Z,53.83
2018-11-22T23:13:08.524Z,62.20
2018-11-22T23:15:36.528Z,55.27
2018-11-22T23:18:04.572Z,57.40
2018-11-22T23:20:33.816Z,52.73
2018-11-22T23:23:01.811Z,58.97
2018-11-22T23:25:30.014Z,53.30
2018-11-22T23:27:57.928Z,58.30
2018-11-22T23:30:33.594Z,59.43
2018-11-22T23:33:04.611Z,47.90
2018-11-22T23:35:32.513Z,58.63
2018-11-22T23:38:00.507Z,49.43
2018-11-22T23:40:29.525Z,59.13
2018-11-22T23:42:57.413Z,56.37
2018-11-22T23:45:27.656Z,50.87
2018-11-22T23:47:55.627Z,55.83
2018-11-22T23:50:24.943Z,53.17
2018-11-22T23:52:54.031Z,53.27
2018-11-22T23:55:21.941Z,49.53
2018-11-22T23:57:49.987Z,56.50
